sensor_id;sensor_type;location;lat;lon;timestamp;P1;durP1;ratioP1;P2;durP2;ratioP2
15063;SDS011;7631;52.088;5.088;2022-08-03T00:02:08;2.10;;;0.93;;
15063;SDS011;7631;52.088;5.088;2022-08-03T00:04:33;1.20;;;0.75;;
15063;SDS011;7631;52.088;5.088;2022-08-03T00:06:59;1.20;;;0.85;;
15063;SDS011;7631;52.088;5.088;2022-08-03T00:09:24;0.80;;;0.65;;
15063;SDS011;7631;52.088;5.088;2022-08-03T00:11:49;1.27;;;0.75;;
15063;SDS011;7631;52.088;5.088;2022-08-03T00:14:14;1.02;;;0.70;;
15063;SDS011;7631;52.088;5.088;2022-08-03T00:16:40;1.58;;;0.90;;
15063;SDS011;7631;52.088;5.088;2022-08-03T00:19:05;1.73;;;0.85;;
15063;SDS011;7631;52.088;5.088;2022-08-03T00:21:30;2.13;;;0.85;;
15063;SDS011;7631;52.088;5.088;2022-08-03T00:23:55;1.25;;;0.70;;
15063;SDS011;7631;52.088;5.088;2022-08-03T00:26:21;1.30;;;0.80;;
15063;SDS011;7631;52.088;5.088;2022-08-03T00:28:46;0.88;;;0.85;;
15063;SDS011;7631;52.088;5.088;2022-08-03T00:31:11;1.33;;;0.73;;
15063;SDS011;7631;52.088;5.088;2022-08-03T00:33:37;1.00;;;0.90;;
15063;SDS011;7631;52.088;5.088;2022-08-03T00:36:02;2.30;;;0.80;;
15063;SDS011;7631;52.088;5.088;2022-08-03T00:38:27;1.67;;;0.90;;
15063;SDS011;7631;52.088;5.088;2022-08-03T00:40:52;0.75;;;0.60;;
15063;SDS011;7631;52.088;5.088;2022-08-03T00:43:18;2.40;;;0.80;;
15063;SDS011;7631;52.088;5.088;2022-08-03T00:45:43;1.95;;;0.88;;
15063;SDS011;7631;52.088;5.088;2022-08-03T00:48:09;0.95;;;0.77;;
15063;SDS011;7631;52.088;5.088;2022-08-03T00:50:36;1.60;;;1.00;;
15063;SDS011;7631;52.088;5.088;2022-08-03T00:53:03;1.25;;;0.70;;
15063;SDS011;7631;52.088;5.088;2022-08-03T00:55:29;1.52;;;0.70;;
15063;SDS011;7631;52.088;5.088;2022-08-03T00:57:55;1.15;;;0.88;;
15063;SDS011;7631;52.088;5.088;2022-08-03T01:00:21;0.63;;;0.60;;
15063;SDS011;7631;52.088;5.088;2022-08-03T01:02:47;2.17;;;0.88;;
15063;SDS011;7631;52.088;5.088;2022-08-03T01:05:12;0.95;;;0.77;;
15063;SDS011;7631;52.088;5.088;2022-08-03T01:10:12;0.93;;;0.80;;
15063;SDS011;7631;52.088;5.088;2022-08-03T01:17:36;0.90;;;0.70;;
15063;SDS011;7631;52.088;5.088;2022-08-03T01:20:08;1.85;;;0.70;;
15063;SDS011;7631;52.088;5.088;2022-08-03T01:28:25;1.27;;;0.77;;
15063;SDS011;7631;52.088;5.088;2022-08-03T01:30:52;1.92;;;1.10;;
15063;SDS011;7631;52.088;5.088;2022-08-03T01:33:19;1.52;;;0.77;;
15063;SDS011;7631;52.088;5.088;2022-08-03T01:35:47;1.00;;;0.80;;
15063;SDS011;7631;52.088;5.088;2022-08-03T01:38:19;3.13;;;0.80;;
15063;SDS011;7631;52.088;5.088;2022-08-03T01:40:46;1.70;;;0.88;;
15063;SDS011;7631;52.088;5.088;2022-08-03T01:43:13;1.80;;;1.00;;
15063;SDS011;7631;52.088;5.088;2022-08-03T01:45:40;1.33;;;0.70;;
15063;SDS011;7631;52.088;5.088;2022-08-03T01:48:06;1.20;;;0.75;;
15063;SDS011;7631;52.088;5.088;2022-08-03T01:50:33;1.88;;;0.70;;
15063;SDS011;7631;52.088;5.088;2022-08-03T01:52:59;1.45;;;0.82;;
15063;SDS011;7631;52.088;5.088;2022-08-03T01:55:25;1.40;;;0.73;;
15063;SDS011;7631;52.088;5.088;2022-08-03T01:57:52;1.70;;;0.70;;
15063;SDS011;7631;52.088;5.088;2022-08-03T02:00:17;0.90;;;0.85;;
15063;SDS011;7631;52.088;5.088;2022-08-03T02:02:43;1.45;;;0.75;;
15063;SDS011;7631;52.088;5.088;2022-08-03T02:05:11;1.05;;;0.70;;
15063;SDS011;7631;52.088;5.088;2022-08-03T02:07:36;3.05;;;1.00;;
15063;SDS011;7631;52.088;5.088;2022-08-03T02:10:04;1.95;;;0.80;;
15063;SDS011;7631;52.088;5.088;2022-08-03T02:12:30;1.17;;;0.82;;
15063;SDS011;7631;52.088;5.088;2022-08-03T02:14:55;1.20;;;0.70;;
15063;SDS011;7631;52.088;5.088;2022-08-03T02:17:21;2.85;;;0.88;;
15063;SDS011;7631;52.088;5.088;2022-08-03T02:19:47;1.95;;;0.90;;
15063;SDS011;7631;52.088;5.088;2022-08-03T02:22:14;3.28;;;1.00;;
15063;SDS011;7631;52.088;5.088;2022-08-03T02:24:39;2.85;;;0.90;;
15063;SDS011;7631;52.088;5.088;2022-08-03T02:27:07;1.35;;;0.88;;
15063;SDS011;7631;52.088;5.088;2022-08-03T02:29:35;1.05;;;0.90;;
15063;SDS011;7631;52.088;5.088;2022-08-03T02:32:01;1.20;;;0.82;;
15063;SDS011;7631;52.088;5.088;2022-08-03T02:34:28;1.30;;;0.77;;
15063;SDS011;7631;52.088;5.088;2022-08-03T02:36:55;1.63;;;0.95;;
15063;SDS011;7631;52.088;5.088;2022-08-03T02:39:24;0.90;;;0.80;;
15063;SDS011;7631;52.088;5.088;2022-08-03T02:41:50;1.23;;;0.93;;
15063;SDS011;7631;52.088;5.088;2022-08-03T02:44:17;2.55;;;0.90;;
15063;SDS011;7631;52.088;5.088;2022-08-03T02:46:44;1.67;;;1.02;;
15063;SDS011;7631;52.088;5.088;2022-08-03T02:49:11;1.02;;;0.73;;
15063;SDS011;7631;52.088;5.088;2022-08-03T02:51:37;0.95;;;0.70;;
15063;SDS011;7631;52.088;5.088;2022-08-03T02:54:03;2.67;;;1.10;;
15063;SDS011;7631;52.088;5.088;2022-08-03T02:56:28;1.58;;;1.00;;
15063;SDS011;7631;52.088;5.088;2022-08-03T02:58:55;1.25;;;0.90;;
15063;SDS011;7631;52.088;5.088;2022-08-03T03:01:21;3.25;;;1.10;;
15063;SDS011;7631;52.088;5.088;2022-08-03T03:03:47;2.30;;;1.00;;
15063;SDS011;7631;52.088;5.088;2022-08-03T03:06:14;2.53;;;1.00;;
15063;SDS011;7631;52.088;5.088;2022-08-03T03:08:40;3.45;;;1.10;;
15063;SDS011;7631;52.088;5.088;2022-08-03T03:11:06;1.17;;;0.82;;
15063;SDS011;7631;52.088;5.088;2022-08-03T03:13:31;3.40;;;1.00;;
15063;SDS011;7631;52.088;5.088;2022-08-03T03:16:01;1.13;;;0.90;;
15063;SDS011;7631;52.088;5.088;2022-08-03T03:18:27;2.55;;;1.02;;
15063;SDS011;7631;52.088;5.088;2022-08-03T03:20:53;1.95;;;1.08;;
15063;SDS011;7631;52.088;5.088;2022-08-03T03:23:20;1.52;;;1.20;;
15063;SDS011;7631;52.088;5.088;2022-08-03T03:25:46;1.55;;;1.02;;
15063;SDS011;7631;52.088;5.088;2022-08-03T03:28:11;1.60;;;0.80;;
15063;SDS011;7631;52.088;5.088;2022-08-03T03:30:36;1.85;;;1.13;;
15063;SDS011;7631;52.088;5.088;2022-08-03T03:33:02;1.17;;;0.90;;
15063;SDS011;7631;52.088;5.088;2022-08-03T03:35:27;1.35;;;0.80;;
15063;SDS011;7631;52.088;5.088;2022-08-03T03:37:52;2.67;;;1.20;;
15063;SDS011;7631;52.088;5.088;2022-08-03T03:40:18;1.93;;;1.10;;
15063;SDS011;7631;52.088;5.088;2022-08-03T03:42:43;2.25;;;1.20;;
15063;SDS011;7631;52.088;5.088;2022-08-03T03:45:08;1.83;;;1.10;;
15063;SDS011;7631;52.088;5.088;2022-08-03T03:47:34;1.88;;;1.08;;
15063;SDS011;7631;52.088;5.088;2022-08-03T03:50:00;1.50;;;1.13;;
15063;SDS011;7631;52.088;5.088;2022-08-03T03:52:25;1.65;;;1.10;;
15063;SDS011;7631;52.088;5.088;2022-08-03T03:54:51;2.05;;;1.10;;
15063;SDS011;7631;52.088;5.088;2022-08-03T03:57:16;1.58;;;1.10;;
15063;SDS011;7631;52.088;5.088;2022-08-03T03:59:41;2.15;;;1.10;;
15063;SDS011;7631;52.088;5.088;2022-08-03T04:02:07;4.75;;;1.00;;
15063;SDS011;7631;52.088;5.088;2022-08-03T04:04:33;1.92;;;1.02;;
15063;SDS011;7631;52.088;5.088;2022-08-03T04:07:17;1.63;;;1.00;;
15063;SDS011;7631;52.088;5.088;2022-08-03T04:10:01;2.20;;;1.05;;
15063;SDS011;7631;52.088;5.088;2022-08-03T04:12:46;1.73;;;1.05;;
15063;SDS011;7631;52.088;5.088;2022-08-03T04:15:12;1.23;;;0.90;;
15063;SDS011;7631;52.088;5.088;2022-08-03T04:17:38;1.80;;;1.05;;
15063;SDS011;7631;52.088;5.088;2022-08-03T04:20:05;1.97;;;1.10;;
15063;SDS011;7631;52.088;5.088;2022-08-03T04:22:31;1.30;;;1.00;;
15063;SDS011;7631;52.088;5.088;2022-08-03T04:25:03;2.83;;;1.30;;
15063;SDS011;7631;52.088;5.088;2022-08-03T04:27:32;2.47;;;1.00;;
15063;SDS011;7631;52.088;5.088;2022-08-03T04:29:58;1.30;;;1.07;;
15063;SDS011;7631;52.088;5.088;2022-08-03T04:32:26;2.00;;;1.05;;
15063;SDS011;7631;52.088;5.088;2022-08-03T04:34:52;1.88;;;1.00;;
15063;SDS011;7631;52.088;5.088;2022-08-03T04:37:23;1.77;;;1.30;;
15063;SDS011;7631;52.088;5.088;2022-08-03T04:39:50;2.63;;;1.00;;
15063;SDS011;7631;52.088;5.088;2022-08-03T04:42:16;1.23;;;1.00;;
15063;SDS011;7631;52.088;5.088;2022-08-03T04:44:43;2.00;;;1.20;;
15063;SDS011;7631;52.088;5.088;2022-08-03T04:47:09;1.83;;;1.30;;
15063;SDS011;7631;52.088;5.088;2022-08-03T04:49:37;3.63;;;1.10;;
15063;SDS011;7631;52.088;5.088;2022-08-03T04:52:03;3.53;;;1.52;;
15063;SDS011;7631;52.088;5.088;2022-08-03T04:54:29;2.20;;;1.27;;
15063;SDS011;7631;52.088;5.088;2022-08-03T04:56:54;2.40;;;1.38;;
15063;SDS011;7631;52.088;5.088;2022-08-03T04:59:20;1.33;;;1.00;;
15063;SDS011;7631;52.088;5.088;2022-08-03T05:01:45;2.05;;;1.20;;
15063;SDS011;7631;52.088;5.088;2022-08-03T05:04:10;2.40;;;1.10;;
15063;SDS011;7631;52.088;5.088;2022-08-03T05:06:35;1.53;;;0.97;;
15063;SDS011;7631;52.088;5.088;2022-08-03T05:09:00;2.00;;;1.10;;
15063;SDS011;7631;52.088;5.088;2022-08-03T05:11:26;1.92;;;1.20;;
15063;SDS011;7631;52.088;5.088;2022-08-03T05:13:51;2.28;;;0.88;;
15063;SDS011;7631;52.088;5.088;2022-08-03T05:16:16;1.55;;;1.02;;
15063;SDS011;7631;52.088;5.088;2022-08-03T05:18:42;2.20;;;0.87;;
15063;SDS011;7631;52.088;5.088;2022-08-03T05:21:08;1.63;;;1.07;;
15063;SDS011;7631;52.088;5.088;2022-08-03T05:23:33;2.40;;;1.33;;
15063;SDS011;7631;52.088;5.088;2022-08-03T05:25:58;2.63;;;1.08;;
15063;SDS011;7631;52.088;5.088;2022-08-03T05:28:23;2.05;;;1.20;;
15063;SDS011;7631;52.088;5.088;2022-08-03T05:30:49;2.00;;;1.30;;
15063;SDS011;7631;52.088;5.088;2022-08-03T05:33:14;2.17;;;1.20;;
15063;SDS011;7631;52.088;5.088;2022-08-03T05:35:39;1.65;;;1.17;;
15063;SDS011;7631;52.088;5.088;2022-08-03T05:38:04;4.17;;;1.20;;
15063;SDS011;7631;52.088;5.088;2022-08-03T05:40:30;1.10;;;1.00;;
15063;SDS011;7631;52.088;5.088;2022-08-03T05:42:55;1.50;;;0.90;;
15063;SDS011;7631;52.088;5.088;2022-08-03T05:45:21;1.60;;;1.00;;
15063;SDS011;7631;52.088;5.088;2022-08-03T05:47:46;2.90;;;1.20;;
15063;SDS011;7631;52.088;5.088;2022-08-03T05:50:12;1.67;;;1.23;;
15063;SDS011;7631;52.088;5.088;2022-08-03T05:52:38;3.40;;;1.17;;
15063;SDS011;7631;52.088;5.088;2022-08-03T05:55:07;1.73;;;1.40;;
15063;SDS011;7631;52.088;5.088;2022-08-03T05:57:32;3.47;;;1.20;;
15063;SDS011;7631;52.088;5.088;2022-08-03T05:59:57;2.55;;;1.23;;
15063;SDS011;7631;52.088;5.088;2022-08-03T06:02:23;3.33;;;1.20;;
15063;SDS011;7631;52.088;5.088;2022-08-03T06:04:48;2.57;;;1.43;;
15063;SDS011;7631;52.088;5.088;2022-08-03T06:07:13;2.50;;;1.25;;
15063;SDS011;7631;52.088;5.088;2022-08-03T06:09:39;3.90;;;1.30;;
15063;SDS011;7631;52.088;5.088;2022-08-03T06:12:05;3.60;;;1.27;;
15063;SDS011;7631;52.088;5.088;2022-08-03T06:14:31;4.40;;;1.23;;
15063;SDS011;7631;52.088;5.088;2022-08-03T06:16:56;2.90;;;1.20;;
15063;SDS011;7631;52.088;5.088;2022-08-03T06:19:21;2.92;;;1.42;;
15063;SDS011;7631;52.088;5.088;2022-08-03T06:21:48;1.93;;;1.27;;
15063;SDS011;7631;52.088;5.088;2022-08-03T06:24:13;4.47;;;1.30;;
15063;SDS011;7631;52.088;5.088;2022-08-03T06:26:38;2.65;;;1.48;;
15063;SDS011;7631;52.088;5.088;2022-08-03T06:29:04;2.47;;;1.20;;
15063;SDS011;7631;52.088;5.088;2022-08-03T06:31:29;2.40;;;1.10;;
15063;SDS011;7631;52.088;5.088;2022-08-03T06:33:54;2.03;;;1.40;;
15063;SDS011;7631;52.088;5.088;2022-08-03T06:36:19;3.50;;;1.42;;
15063;SDS011;7631;52.088;5.088;2022-08-03T06:38:45;3.53;;;1.35;;
15063;SDS011;7631;52.088;5.088;2022-08-03T06:41:10;3.17;;;1.58;;
15063;SDS011;7631;52.088;5.088;2022-08-03T06:43:35;4.43;;;1.77;;
15063;SDS011;7631;52.088;5.088;2022-08-03T06:46:01;4.20;;;1.30;;
15063;SDS011;7631;52.088;5.088;2022-08-03T06:48:27;4.20;;;1.47;;
15063;SDS011;7631;52.088;5.088;2022-08-03T06:50:52;4.60;;;1.77;;
15063;SDS011;7631;52.088;5.088;2022-08-03T06:53:17;5.95;;;1.98;;
15063;SDS011;7631;52.088;5.088;2022-08-03T06:55:42;3.93;;;1.83;;
15063;SDS011;7631;52.088;5.088;2022-08-03T06:58:08;3.90;;;1.60;;
15063;SDS011;7631;52.088;5.088;2022-08-03T07:00:33;5.90;;;2.33;;
15063;SDS011;7631;52.088;5.088;2022-08-03T07:02:58;4.53;;;1.98;;
15063;SDS011;7631;52.088;5.088;2022-08-03T07:05:23;3.60;;;1.60;;
15063;SDS011;7631;52.088;5.088;2022-08-03T07:07:49;4.50;;;2.10;;
15063;SDS011;7631;52.088;5.088;2022-08-03T07:10:14;4.80;;;1.80;;
15063;SDS011;7631;52.088;5.088;2022-08-03T07:12:39;4.17;;;1.73;;
15063;SDS011;7631;52.088;5.088;2022-08-03T07:15:05;5.43;;;1.92;;
15063;SDS011;7631;52.088;5.088;2022-08-03T07:17:34;4.75;;;1.85;;
15063;SDS011;7631;52.088;5.088;2022-08-03T07:20:00;4.95;;;1.92;;
15063;SDS011;7631;52.088;5.088;2022-08-03T07:22:26;4.80;;;1.65;;
15063;SDS011;7631;52.088;5.088;2022-08-03T07:24:52;5.25;;;2.05;;
15063;SDS011;7631;52.088;5.088;2022-08-03T07:27:17;7.63;;;2.28;;
15063;SDS011;7631;52.088;5.088;2022-08-03T07:29:42;4.22;;;1.92;;
15063;SDS011;7631;52.088;5.088;2022-08-03T07:32:08;6.70;;;2.03;;
15063;SDS011;7631;52.088;5.088;2022-08-03T07:34:33;6.10;;;2.65;;
15063;SDS011;7631;52.088;5.088;2022-08-03T07:36:58;7.13;;;2.47;;
15063;SDS011;7631;52.088;5.088;2022-08-03T07:39:23;3.47;;;1.70;;
15063;SDS011;7631;52.088;5.088;2022-08-03T07:41:49;6.03;;;2.17;;
15063;SDS011;7631;52.088;5.088;2022-08-03T07:44:15;7.03;;;2.40;;
15063;SDS011;7631;52.088;5.088;2022-08-03T07:46:41;5.10;;;2.15;;
15063;SDS011;7631;52.088;5.088;2022-08-03T07:49:06;3.25;;;2.00;;
15063;SDS011;7631;52.088;5.088;2022-08-03T07:51:31;5.72;;;2.40;;
15063;SDS011;7631;52.088;5.088;2022-08-03T07:53:56;4.85;;;1.95;;
15063;SDS011;7631;52.088;5.088;2022-08-03T07:56:25;6.57;;;2.28;;
15063;SDS011;7631;52.088;5.088;2022-08-03T07:58:50;8.00;;;2.17;;
15063;SDS011;7631;52.088;5.088;2022-08-03T08:01:16;6.97;;;2.22;;
15063;SDS011;7631;52.088;5.088;2022-08-03T08:03:43;3.35;;;1.77;;
15063;SDS011;7631;52.088;5.088;2022-08-03T08:06:08;7.45;;;2.10;;
15063;SDS011;7631;52.088;5.088;2022-08-03T08:08:33;6.10;;;2.45;;
15063;SDS011;7631;52.088;5.088;2022-08-03T08:10:59;4.35;;;2.00;;
15063;SDS011;7631;52.088;5.088;2022-08-03T08:13:24;4.90;;;2.20;;
15063;SDS011;7631;52.088;5.088;2022-08-03T08:15:49;5.03;;;2.10;;
15063;SDS011;7631;52.088;5.088;2022-08-03T08:18:14;3.85;;;1.55;;
15063;SDS011;7631;52.088;5.088;2022-08-03T08:20:39;4.35;;;2.00;;
15063;SDS011;7631;52.088;5.088;2022-08-03T08:23:05;4.13;;;1.83;;
15063;SDS011;7631;52.088;5.088;2022-08-03T08:25:31;4.72;;;2.00;;
15063;SDS011;7631;52.088;5.088;2022-08-03T08:27:56;5.70;;;2.70;;
15063;SDS011;7631;52.088;5.088;2022-08-03T08:30:22;6.15;;;2.30;;
15063;SDS011;7631;52.088;5.088;2022-08-03T08:32:47;4.43;;;2.08;;
15063;SDS011;7631;52.088;5.088;2022-08-03T08:35:13;6.65;;;2.13;;
15063;SDS011;7631;52.088;5.088;2022-08-03T08:37:39;4.95;;;2.30;;
15063;SDS011;7631;52.088;5.088;2022-08-03T08:40:05;4.45;;;2.50;;
15063;SDS011;7631;52.088;5.088;2022-08-03T08:42:31;3.13;;;2.08;;
15063;SDS011;7631;52.088;5.088;2022-08-03T08:44:56;8.05;;;3.50;;
15063;SDS011;7631;52.088;5.088;2022-08-03T08:47:23;6.15;;;2.90;;
15063;SDS011;7631;52.088;5.088;2022-08-03T08:49:50;6.72;;;2.72;;
15063;SDS011;7631;52.088;5.088;2022-08-03T08:52:16;5.65;;;3.03;;
15063;SDS011;7631;52.088;5.088;2022-08-03T08:54:43;5.93;;;2.55;;
15063;SDS011;7631;52.088;5.088;2022-08-03T08:57:09;7.20;;;2.80;;
15063;SDS011;7631;52.088;5.088;2022-08-03T08:59:35;5.38;;;2.60;;
15063;SDS011;7631;52.088;5.088;2022-08-03T09:02:00;5.65;;;2.58;;
15063;SDS011;7631;52.088;5.088;2022-08-03T09:04:27;7.78;;;2.70;;
15063;SDS011;7631;52.088;5.088;2022-08-03T09:06:52;5.03;;;2.67;;
15063;SDS011;7631;52.088;5.088;2022-08-03T09:09:18;6.88;;;3.08;;
15063;SDS011;7631;52.088;5.088;2022-08-03T09:11:43;8.10;;;2.75;;
15063;SDS011;7631;52.088;5.088;2022-08-03T09:14:09;5.38;;;2.47;;
15063;SDS011;7631;52.088;5.088;2022-08-03T09:16:34;5.90;;;2.70;;
15063;SDS011;7631;52.088;5.088;2022-08-03T09:19:10;5.55;;;2.53;;
15063;SDS011;7631;52.088;5.088;2022-08-03T09:21:36;3.53;;;2.40;;
15063;SDS011;7631;52.088;5.088;2022-08-03T09:24:03;2.95;;;2.35;;
15063;SDS011;7631;52.088;5.088;2022-08-03T09:26:29;5.32;;;2.70;;
15063;SDS011;7631;52.088;5.088;2022-08-03T09:31:33;5.68;;;2.65;;
15063;SDS011;7631;52.088;5.088;2022-08-03T09:33:59;5.53;;;2.55;;
15063;SDS011;7631;52.088;5.088;2022-08-03T09:39:00;4.90;;;2.55;;
15063;SDS011;7631;52.088;5.088;2022-08-03T09:41:27;5.57;;;2.45;;
15063;SDS011;7631;52.088;5.088;2022-08-03T09:43:52;6.03;;;2.47;;
15063;SDS011;7631;52.088;5.088;2022-08-03T09:46:20;5.38;;;2.65;;
15063;SDS011;7631;52.088;5.088;2022-08-03T09:48:46;5.07;;;2.22;;
15063;SDS011;7631;52.088;5.088;2022-08-03T09:51:11;3.88;;;2.17;;
15063;SDS011;7631;52.088;5.088;2022-08-03T09:53:44;3.60;;;2.35;;
15063;SDS011;7631;52.088;5.088;2022-08-03T09:56:09;4.32;;;2.40;;
15063;SDS011;7631;52.088;5.088;2022-08-03T09:58:43;5.78;;;2.60;;
15063;SDS011;7631;52.088;5.088;2022-08-03T10:01:09;4.35;;;2.60;;
15063;SDS011;7631;52.088;5.088;2022-08-03T10:03:35;4.93;;;2.72;;
15063;SDS011;7631;52.088;5.088;2022-08-03T10:06:17;3.15;;;2.20;;
15063;SDS011;7631;52.088;5.088;2022-08-03T10:08:46;5.32;;;2.33;;
15063;SDS011;7631;52.088;5.088;2022-08-03T10:11:31;5.55;;;2.58;;
15063;SDS011;7631;52.088;5.088;2022-08-03T10:13:56;6.53;;;2.45;;
15063;SDS011;7631;52.088;5.088;2022-08-03T10:16:22;4.32;;;2.30;;
15063;SDS011;7631;52.088;5.088;2022-08-03T10:18:47;4.18;;;2.42;;
15063;SDS011;7631;52.088;5.088;2022-08-03T10:21:12;3.20;;;2.13;;
15063;SDS011;7631;52.088;5.088;2022-08-03T10:23:40;4.90;;;2.22;;
15063;SDS011;7631;52.088;5.088;2022-08-03T10:26:06;6.00;;;2.47;;
15063;SDS011;7631;52.088;5.088;2022-08-03T10:28:35;3.55;;;2.10;;
15063;SDS011;7631;52.088;5.088;2022-08-03T10:31:01;4.60;;;2.20;;
15063;SDS011;7631;52.088;5.088;2022-08-03T10:33:30;4.72;;;2.35;;
15063;SDS011;7631;52.088;5.088;2022-08-03T10:35:56;5.28;;;1.98;;
15063;SDS011;7631;52.088;5.088;2022-08-03T10:38:23;5.45;;;2.35;;
15063;SDS011;7631;52.088;5.088;2022-08-03T10:40:52;5.32;;;2.38;;
15063;SDS011;7631;52.088;5.088;2022-08-03T10:43:19;2.80;;;1.70;;
15063;SDS011;7631;52.088;5.088;2022-08-03T10:45:45;3.20;;;1.98;;
15063;SDS011;7631;52.088;5.088;2022-08-03T10:48:11;3.63;;;1.98;;
15063;SDS011;7631;52.088;5.088;2022-08-03T10:50:36;5.65;;;2.13;;
15063;SDS011;7631;52.088;5.088;2022-08-03T10:53:03;4.35;;;2.20;;
15063;SDS011;7631;52.088;5.088;2022-08-03T10:55:33;5.50;;;2.05;;
15063;SDS011;7631;52.088;5.088;2022-08-03T11:01:00;3.25;;;1.63;;
15063;SDS011;7631;52.088;5.088;2022-08-03T11:03:26;4.80;;;1.83;;
15063;SDS011;7631;52.088;5.088;2022-08-03T11:05:51;4.07;;;1.98;;
15063;SDS011;7631;52.088;5.088;2022-08-03T11:10:54;3.90;;;1.73;;
15063;SDS011;7631;52.088;5.088;2022-08-03T11:13:21;4.10;;;2.13;;
15063;SDS011;7631;52.088;5.088;2022-08-03T11:15:47;3.58;;;1.80;;
15063;SDS011;7631;52.088;5.088;2022-08-03T11:18:13;3.83;;;2.13;;
15063;SDS011;7631;52.088;5.088;2022-08-03T11:20:45;6.07;;;2.15;;
15063;SDS011;7631;52.088;5.088;2022-08-03T11:23:10;3.85;;;1.58;;
15063;SDS011;7631;52.088;5.088;2022-08-03T11:28:26;3.38;;;1.48;;
15063;SDS011;7631;52.088;5.088;2022-08-03T11:30:54;4.30;;;1.98;;
15063;SDS011;7631;52.088;5.088;2022-08-03T11:33:27;4.55;;;1.70;;
15063;SDS011;7631;52.088;5.088;2022-08-03T11:36:00;3.92;;;1.90;;
15063;SDS011;7631;52.088;5.088;2022-08-03T11:38:26;3.17;;;1.95;;
15063;SDS011;7631;52.088;5.088;2022-08-03T11:40:52;3.78;;;1.80;;
15063;SDS011;7631;52.088;5.088;2022-08-03T11:45:59;2.30;;;1.70;;
15063;SDS011;7631;52.088;5.088;2022-08-03T11:48:31;4.78;;;2.05;;
15063;SDS011;7631;52.088;5.088;2022-08-03T11:50:57;4.70;;;1.70;;
15063;SDS011;7631;52.088;5.088;2022-08-03T11:53:23;6.78;;;2.00;;
15063;SDS011;7631;52.088;5.088;2022-08-03T11:55:48;5.65;;;1.80;;
15063;SDS011;7631;52.088;5.088;2022-08-03T11:58:14;6.05;;;1.95;;
15063;SDS011;7631;52.088;5.088;2022-08-03T12:00:40;4.05;;;1.95;;
15063;SDS011;7631;52.088;5.088;2022-08-03T12:03:09;4.93;;;2.13;;
15063;SDS011;7631;52.088;5.088;2022-08-03T12:05:43;3.63;;;2.25;;
15063;SDS011;7631;52.088;5.088;2022-08-03T12:08:09;4.15;;;2.00;;
15063;SDS011;7631;52.088;5.088;2022-08-03T12:10:35;4.97;;;2.20;;
15063;SDS011;7631;52.088;5.088;2022-08-03T12:13:01;3.55;;;1.90;;
15063;SDS011;7631;52.088;5.088;2022-08-03T12:15:27;2.20;;;1.70;;
15063;SDS011;7631;52.088;5.088;2022-08-03T12:17:53;2.92;;;1.98;;
15063;SDS011;7631;52.088;5.088;2022-08-03T12:20:22;3.45;;;1.90;;
15063;SDS011;7631;52.088;5.088;2022-08-03T12:22:47;5.18;;;2.55;;
15063;SDS011;7631;52.088;5.088;2022-08-03T12:25:19;4.25;;;2.50;;
15063;SDS011;7631;52.088;5.088;2022-08-03T12:27:45;2.28;;;1.90;;
15063;SDS011;7631;52.088;5.088;2022-08-03T12:30:10;4.55;;;2.10;;
15063;SDS011;7631;52.088;5.088;2022-08-03T12:32:36;3.15;;;2.20;;
15063;SDS011;7631;52.088;5.088;2022-08-03T12:35:01;3.60;;;2.10;;
15063;SDS011;7631;52.088;5.088;2022-08-03T12:37:28;2.30;;;1.85;;
15063;SDS011;7631;52.088;5.088;2022-08-03T12:39:55;5.28;;;2.30;;
15063;SDS011;7631;52.088;5.088;2022-08-03T12:42:21;3.67;;;2.58;;
15063;SDS011;7631;52.088;5.088;2022-08-03T12:44:53;2.88;;;2.35;;
15063;SDS011;7631;52.088;5.088;2022-08-03T12:47:19;3.95;;;2.22;;
15063;SDS011;7631;52.088;5.088;2022-08-03T12:49:53;3.80;;;2.43;;
15063;SDS011;7631;52.088;5.088;2022-08-03T12:52:19;4.05;;;2.20;;
15063;SDS011;7631;52.088;5.088;2022-08-03T12:54:54;4.10;;;2.22;;
15063;SDS011;7631;52.088;5.088;2022-08-03T12:57:20;3.63;;;2.50;;
15063;SDS011;7631;52.088;5.088;2022-08-03T12:59:45;3.80;;;2.80;;
15063;SDS011;7631;52.088;5.088;2022-08-03T13:02:22;4.90;;;2.40;;
15063;SDS011;7631;52.088;5.088;2022-08-03T13:04:48;3.00;;;2.28;;
15063;SDS011;7631;52.088;5.088;2022-08-03T13:07:14;3.92;;;2.38;;
15063;SDS011;7631;52.088;5.088;2022-08-03T13:09:43;3.08;;;2.17;;
15063;SDS011;7631;52.088;5.088;2022-08-03T13:14:34;3.70;;;2.58;;
15063;SDS011;7631;52.088;5.088;2022-08-03T13:16:59;2.72;;;2.35;;
15063;SDS011;7631;52.088;5.088;2022-08-03T13:19:24;3.97;;;2.30;;
15063;SDS011;7631;52.088;5.088;2022-08-03T13:21:52;3.22;;;2.28;;
15063;SDS011;7631;52.088;5.088;2022-08-03T13:24:17;3.28;;;2.40;;
15063;SDS011;7631;52.088;5.088;2022-08-03T13:26:43;3.00;;;2.60;;
15063;SDS011;7631;52.088;5.088;2022-08-03T13:29:08;3.00;;;2.40;;
15063;SDS011;7631;52.088;5.088;2022-08-03T13:31:33;2.67;;;2.30;;
15063;SDS011;7631;52.088;5.088;2022-08-03T13:33:58;2.67;;;2.35;;
15063;SDS011;7631;52.088;5.088;2022-08-03T13:36:24;2.97;;;2.08;;
15063;SDS011;7631;52.088;5.088;2022-08-03T13:38:49;2.83;;;2.28;;
15063;SDS011;7631;52.088;5.088;2022-08-03T13:41:14;3.58;;;2.80;;
15063;SDS011;7631;52.088;5.088;2022-08-03T13:43:40;2.47;;;2.20;;
15063;SDS011;7631;52.088;5.088;2022-08-03T13:46:05;2.33;;;2.10;;
15063;SDS011;7631;52.088;5.088;2022-08-03T13:48:30;2.63;;;2.20;;
15063;SDS011;7631;52.088;5.088;2022-08-03T13:50:55;2.65;;;2.20;;
15063;SDS011;7631;52.088;5.088;2022-08-03T13:53:20;2.85;;;2.03;;
15063;SDS011;7631;52.088;5.088;2022-08-03T13:55:46;2.60;;;2.40;;
15063;SDS011;7631;52.088;5.088;2022-08-03T13:58:11;2.63;;;2.13;;
15063;SDS011;7631;52.088;5.088;2022-08-03T14:00:36;2.50;;;1.92;;
15063;SDS011;7631;52.088;5.088;2022-08-03T14:03:02;3.58;;;2.00;;
15063;SDS011;7631;52.088;5.088;2022-08-03T14:05:27;4.32;;;2.25;;
15063;SDS011;7631;52.088;5.088;2022-08-03T14:07:53;2.47;;;2.28;;
15063;SDS011;7631;52.088;5.088;2022-08-03T14:10:18;2.45;;;2.03;;
15063;SDS011;7631;52.088;5.088;2022-08-03T14:12:43;3.28;;;2.30;;
15063;SDS011;7631;52.088;5.088;2022-08-03T14:15:09;3.17;;;2.30;;
15063;SDS011;7631;52.088;5.088;2022-08-03T14:17:36;2.38;;;1.80;;
15063;SDS011;7631;52.088;5.088;2022-08-03T14:20:02;2.72;;;1.80;;
15063;SDS011;7631;52.088;5.088;2022-08-03T14:22:29;3.28;;;2.15;;
15063;SDS011;7631;52.088;5.088;2022-08-03T14:24:54;3.67;;;2.10;;
15063;SDS011;7631;52.088;5.088;2022-08-03T14:27:19;2.33;;;2.13;;
15063;SDS011;7631;52.088;5.088;2022-08-03T14:29:44;3.83;;;2.00;;
15063;SDS011;7631;52.088;5.088;2022-08-03T14:32:10;3.30;;;2.10;;
15063;SDS011;7631;52.088;5.088;2022-08-03T14:34:35;3.08;;;1.92;;
15063;SDS011;7631;52.088;5.088;2022-08-03T14:37:00;2.60;;;1.88;;
15063;SDS011;7631;52.088;5.088;2022-08-03T14:39:25;1.88;;;1.65;;
15063;SDS011;7631;52.088;5.088;2022-08-03T14:41:51;2.17;;;1.65;;
15063;SDS011;7631;52.088;5.088;2022-08-03T14:44:16;2.85;;;2.10;;
15063;SDS011;7631;52.088;5.088;2022-08-03T14:46:41;3.08;;;2.03;;
15063;SDS011;7631;52.088;5.088;2022-08-03T14:49:06;2.75;;;1.80;;
15063;SDS011;7631;52.088;5.088;2022-08-03T14:51:31;2.10;;;1.73;;
15063;SDS011;7631;52.088;5.088;2022-08-03T14:53:57;3.00;;;1.95;;
15063;SDS011;7631;52.088;5.088;2022-08-03T14:56:25;2.38;;;2.08;;
15063;SDS011;7631;52.088;5.088;2022-08-03T14:58:50;2.25;;;1.52;;
15063;SDS011;7631;52.088;5.088;2022-08-03T15:01:15;2.05;;;1.70;;
15063;SDS011;7631;52.088;5.088;2022-08-03T15:03:40;2.42;;;1.80;;
15063;SDS011;7631;52.088;5.088;2022-08-03T15:06:06;2.25;;;2.05;;
15063;SDS011;7631;52.088;5.088;2022-08-03T15:08:31;2.17;;;1.75;;
15063;SDS011;7631;52.088;5.088;2022-08-03T15:10:56;3.00;;;1.80;;
15063;SDS011;7631;52.088;5.088;2022-08-03T15:13:21;1.70;;;1.55;;
15063;SDS011;7631;52.088;5.088;2022-08-03T15:15:47;2.05;;;1.58;;
15063;SDS011;7631;52.088;5.088;2022-08-03T15:18:13;3.35;;;1.65;;
15063;SDS011;7631;52.088;5.088;2022-08-03T15:20:38;2.25;;;1.70;;
15063;SDS011;7631;52.088;5.088;2022-08-03T15:23:04;2.78;;;1.80;;
15063;SDS011;7631;52.088;5.088;2022-08-03T15:25:29;3.92;;;1.90;;
15063;SDS011;7631;52.088;5.088;2022-08-03T15:27:54;2.08;;;1.88;;